Current | Forecast
Updated: 9:30 PM EEST on October 17, 2017
Observed at Kharkiv, Russia
Temperature 10°C
Humidity 94%
Dew Point 9°C
Wind NW at 7 km/h
Pressure 1020 hPa (Steady)
Conditions Scattered Clouds
Visibility 1.0 kilometers
UV 0 out of 16
Clouds Scattered Clouds (SCT) : 1097 m
Yesterday's Maximum 11°C
Yesterday's Minimum 6°C approx.
Yesterday's Heating Degree Days 18 approx.
Sunrise6:58 AM MSK
Sunset5:37 PM MSK
Moon Rise3:52 AM MSK
Moon Set5:02 PM MSK
Moon PhaseMoon Phase
Waning Crescent
Raw METARMETAR UKHH 171830Z 32002MPS 1000 R25/1800 BR SCT036 10/09 Q1020 R25/0///66 TEMPO 0400 FG BKN002


Monday
. High: 64° F.
Tuesday
. High: 62° F.
Wednesday
. High: 62° F.
Thursday
. High: 62° F.
Friday
. High: 64° F.
Saturday
. High: 66° F.
Sunday
. High: 57° F.
Monday
. High: 64° F.

Units: English | Metric

Find the Weather for any City, State or Zipcode, or Country:

U.S. State List | Severe Weather | Tropical Storms | Ski Conditions
United States | Canada | Central America | South America | Asia | Europe | Australia | Africa | Islands

Weather Underground

© Copyright 2017
The Weather Company, LLC